createdAt,value
2023-04-10T00:01:18.261Z,95992.50
2023-04-10T00:03:48.176Z,95985.78
2023-04-10T00:06:17.228Z,95994.34
2023-04-10T00:08:46.227Z,95994.28
2023-04-10T00:11:15.145Z,96003.09
2023-04-10T00:13:44.072Z,96009.91
2023-04-10T00:16:13.008Z,96014.56
2023-04-10T00:18:42.122Z,96015.94
2023-04-10T00:21:11.519Z,96018.91
2023-04-10T00:23:40.322Z,96017.31
2023-04-10T00:26:09.599Z,96015.16
2023-04-10T00:28:39.167Z,96007.22
2023-04-10T00:31:08.015Z,96008.06
2023-04-10T00:33:36.770Z,96027.13
2023-04-10T00:36:05.907Z,96028.22
2023-04-10T00:38:34.975Z,96028.44
2023-04-10T00:41:03.866Z,96034.75
2023-04-10T00:43:32.662Z,96032.06
2023-04-10T00:46:02.220Z,96024.28
2023-04-10T00:48:31.084Z,96026.19
2023-04-10T00:51:00.559Z,96029.47
2023-04-10T00:53:29.961Z,96036.69
2023-04-10T00:55:59.941Z,96044.59
2023-04-10T00:58:28.717Z,96046.69
2023-04-10T01:00:58.468Z,96038.06
2023-04-10T01:03:28.138Z,96029.91
2023-04-10T01:06:29.622Z,96034.19
2023-04-10T01:09:16.966Z,96046.03
2023-04-10T01:11:59.216Z,96041.78
2023-04-10T01:14:48.115Z,96046.31
2023-04-10T01:17:29.930Z,96046.84
2023-04-10T01:20:10.082Z,96045.47
2023-04-10T01:23:16.074Z,96052.59
2023-04-10T01:26:07.291Z,96053.25
2023-04-10T01:28:56.748Z,96057.72
2023-04-10T01:32:04.732Z,96066.00
2023-04-10T01:34:47.354Z,96059.16
2023-04-10T01:37:35.040Z,96067.44
2023-04-10T01:40:10.039Z,96052.47
2023-04-10T01:42:46.072Z,96064.50
2023-04-10T01:45:20.913Z,96074.91
2023-04-10T01:47:53.568Z,96075.63
2023-04-10T01:50:26.567Z,96081.06
2023-04-10T01:52:55.692Z,96084.84
2023-04-10T01:55:28.237Z,96085.50
2023-04-10T01:58:03.307Z,96087.03
2023-04-10T02:00:43.642Z,96091.78
2023-04-10T02:03:14.679Z,96096.09
2023-04-10T02:06:13.671Z,96100.47
2023-04-10T02:08:52.153Z,96100.09
2023-04-10T02:11:38.587Z,96109.69
2023-04-10T02:14:12.715Z,96099.47
2023-04-10T02:17:03.398Z,96097.66
2023-04-10T02:19:33.711Z,96108.34
2023-04-10T02:22:05.272Z,96101.50
2023-04-10T02:24:36.476Z,96111.78
2023-04-10T02:27:06.421Z,96120.16
2023-04-10T02:29:35.362Z,96122.59
2023-04-10T02:32:05.555Z,96117.94
2023-04-10T02:34:34.347Z,96120.81
2023-04-10T02:37:04.820Z,96130.97
2023-04-10T02:39:33.605Z,96126.63
2023-04-10T02:42:02.358Z,96129.97
2023-04-10T02:44:31.300Z,96133.88
2023-04-10T02:47:00.267Z,96137.56
2023-04-10T02:49:30.661Z,96131.38
2023-04-10T02:52:02.441Z,96137.66
2023-04-10T02:54:31.449Z,96145.88
2023-04-10T02:57:02.011Z,96141.38
2023-04-10T02:59:31.612Z,96140.63
2023-04-10T03:02:01.992Z,96135.53
2023-04-10T03:04:34.641Z,96147.97
2023-04-10T03:07:03.747Z,96151.56
2023-04-10T03:09:32.555Z,96148.25
2023-04-10T03:12:02.621Z,96153.31
2023-04-10T03:14:31.660Z,96150.84
2023-04-10T03:17:00.472Z,96156.16
2023-04-10T03:19:29.554Z,96144.84
2023-04-10T03:21:58.282Z,96164.69
2023-04-10T03:24:27.732Z,96168.69
2023-04-10T03:26:57.561Z,96167.78
2023-04-10T03:29:26.565Z,96167.94
2023-04-10T03:31:58.059Z,96176.31
2023-04-10T03:34:28.648Z,96169.59
2023-04-10T03:36:57.796Z,96163.78
2023-04-10T03:39:26.793Z,96184.66
2023-04-10T03:41:55.617Z,96177.75
2023-04-10T03:44:28.281Z,96166.63
2023-04-10T03:46:57.232Z,96166.03
2023-04-10T03:49:26.181Z,96164.75
2023-04-10T03:52:03.407Z,96171.53
2023-04-10T03:54:32.159Z,96170.41
2023-04-10T03:57:02.126Z,96159.31
2023-04-10T03:59:38.215Z,96173.75
2023-04-10T04:02:13.994Z,96164.81
2023-04-10T04:04:45.060Z,96159.09
2023-04-10T04:07:43.110Z,96177.47
2023-04-10T04:10:31.702Z,96176.19
2023-04-10T04:13:23.578Z,96178.53
2023-04-10T04:15:57.754Z,96183.22
2023-04-10T04:18:47.772Z,96180.47
2023-04-10T04:21:23.794Z,96181.31
2023-04-10T04:24:15.922Z,96195.50
2023-04-10T04:27:10.841Z,96191.53
2023-04-10T04:29:57.918Z,96194.28
2023-04-10T04:32:36.515Z,96186.94
2023-04-10T04:35:18.015Z,96194.34
2023-04-10T04:38:21.862Z,96191.69
2023-04-10T04:41:08.985Z,96198.91
2023-04-10T04:43:57.743Z,96192.16
2023-04-10T04:46:44.973Z,96193.97
2023-04-10T04:49:25.905Z,96181.59
2023-04-10T04:52:13.664Z,96186.16
2023-04-10T04:54:49.314Z,96198.94
2023-04-10T04:57:24.375Z,96197.59
2023-04-10T05:00:15.494Z,96200.44
2023-04-10T05:03:16.578Z,96186.75
2023-04-10T05:06:05.843Z,96198.75
2023-04-10T05:08:53.630Z,96198.63
2023-04-10T05:11:32.797Z,96197.59
2023-04-10T05:14:30.380Z,96186.44
2023-04-10T05:17:10.092Z,96196.19
2023-04-10T05:19:44.833Z,96190.44
2023-04-10T05:22:25.821Z,96188.88
2023-04-10T05:25:17.727Z,96199.28
2023-04-10T05:28:12.129Z,96195.78
2023-04-10T05:31:01.229Z,96197.41
2023-04-10T05:33:51.568Z,96181.78
2023-04-10T05:36:52.439Z,96188.38
2023-04-10T05:39:25.383Z,96192.72
2023-04-10T05:42:03.993Z,96196.19
2023-04-10T05:44:46.248Z,96187.78
2023-04-10T05:47:41.206Z,96196.72
2023-04-10T05:50:23.332Z,96197.53
2023-04-10T05:53:14.833Z,96203.72
2023-04-10T05:56:02.587Z,96186.44
2023-04-10T05:59:07.652Z,96185.56
2023-04-10T06:01:58.335Z,96189.41
2023-04-10T06:04:27.616Z,96189.97
2023-04-10T06:06:59.334Z,96191.81
2023-04-10T06:09:28.236Z,96191.34
2023-04-10T06:11:57.359Z,96187.56
2023-04-10T06:14:28.057Z,96194.97
2023-04-10T06:16:57.578Z,96192.22
2023-04-10T06:19:27.161Z,96197.81
2023-04-10T06:21:56.072Z,96183.47
2023-04-10T06:24:24.881Z,96189.22
2023-04-10T06:26:53.776Z,96185.59
2023-04-10T06:29:22.613Z,96188.94
2023-04-10T06:31:52.587Z,96198.34
2023-04-10T06:34:21.909Z,96195.59
2023-04-10T06:37:04.378Z,96186.47
2023-04-10T06:39:34.245Z,96189.78
2023-04-10T06:42:04.262Z,96188.81
2023-04-10T06:44:55.815Z,96191.03
2023-04-10T06:47:24.723Z,96195.78
2023-04-10T06:49:53.483Z,96187.31
2023-04-10T06:52:22.880Z,96194.56
2023-04-10T06:54:51.654Z,96191.88
2023-04-10T06:57:20.492Z,96188.13
2023-04-10T06:59:49.388Z,96188.03
2023-04-10T07:02:19.544Z,96189.84
2023-04-10T07:04:48.737Z,96179.28
2023-04-10T07:07:18.567Z,96186.06
2023-04-10T07:09:47.401Z,96190.13
2023-04-10T07:12:17.119Z,96194.59
2023-04-10T07:14:45.828Z,96191.75
2023-04-10T07:17:14.657Z,96196.69
2023-04-10T07:19:43.360Z,96193.28
2023-04-10T07:22:12.248Z,96193.03
2023-04-10T07:24:41.206Z,96189.66
2023-04-10T07:27:09.967Z,96195.47
2023-04-10T07:29:38.645Z,96181.78
2023-04-10T07:32:07.563Z,96197.00
2023-04-10T07:34:37.220Z,96194.03
2023-04-10T07:37:06.060Z,96191.69
2023-04-10T07:39:34.960Z,96192.63
2023-04-10T07:42:03.723Z,96181.31
2023-04-10T07:44:32.554Z,96177.59
2023-04-10T07:47:01.421Z,96184.88
2023-04-10T07:49:30.480Z,96182.34
2023-04-10T07:51:59.276Z,96172.88
2023-04-10T07:54:28.172Z,96175.97
2023-04-10T07:56:56.982Z,96178.38
2023-04-10T07:59:25.951Z,96170.31
2023-04-10T08:01:56.332Z,96182.72
2023-04-10T08:04:25.793Z,96177.09
2023-04-10T08:06:54.722Z,96164.88
2023-04-10T08:09:23.560Z,96171.00
2023-04-10T08:11:52.314Z,96159.41
2023-04-10T08:14:21.236Z,96165.25
2023-04-10T08:16:50.081Z,96169.44
2023-04-10T08:19:18.869Z,96173.78
2023-04-10T08:21:47.760Z,96163.06
2023-04-10T08:24:20.333Z,96163.06
2023-04-10T08:26:49.393Z,96163.00
2023-04-10T08:29:18.157Z,96177.31
2023-04-10T08:31:46.932Z,96171.31
2023-04-10T08:34:16.008Z,96158.66
2023-04-10T08:36:44.824Z,96167.69
2023-04-10T08:39:13.589Z,96162.19
2023-04-10T08:41:42.700Z,96171.47
2023-04-10T08:44:12.313Z,96162.72
2023-04-10T08:46:44.404Z,96151.63
2023-04-10T08:49:48.650Z,96165.88
2023-04-10T08:52:26.631Z,96168.88
2023-04-10T08:54:58.703Z,96156.81
2023-04-10T08:57:28.591Z,96173.44
2023-04-10T08:59:59.522Z,96157.72
2023-04-10T09:02:33.781Z,96152.97
2023-04-10T09:05:05.364Z,96161.34
2023-04-10T09:07:34.440Z,96154.88
2023-04-10T09:10:03.274Z,96164.75
2023-04-10T09:12:48.150Z,96159.16
2023-04-10T09:15:17.144Z,96159.03
2023-04-10T09:18:03.150Z,96149.78
2023-04-10T09:20:33.105Z,96155.78
2023-04-10T09:23:03.974Z,96155.59
2023-04-10T09:25:37.199Z,96151.84
2023-04-10T09:28:10.946Z,96146.84
2023-04-10T09:30:43.678Z,96150.41
2023-04-10T09:33:24.611Z,96151.03
2023-04-10T09:35:53.570Z,96145.19
2023-04-10T09:38:22.940Z,96140.41
2023-04-10T09:40:53.541Z,96131.28
2023-04-10T09:43:26.914Z,96138.47
2023-04-10T09:45:58.190Z,96140.25
2023-04-10T09:48:29.944Z,96142.56
2023-04-10T09:50:59.107Z,96145.00
2023-04-10T09:53:28.003Z,96135.91
2023-04-10T09:55:57.487Z,96132.38
2023-04-10T09:58:27.109Z,96148.25
2023-04-10T10:00:56.694Z,96134.03
2023-04-10T10:03:26.276Z,96132.47
2023-04-10T10:05:55.263Z,96138.53
2023-04-10T10:08:25.211Z,96137.75
2023-04-10T10:10:59.982Z,96134.31
2023-04-10T10:13:45.351Z,96146.25
2023-04-10T10:16:19.863Z,96121.28
2023-04-10T10:18:56.941Z,96126.59
2023-04-10T10:21:29.422Z,96131.16
2023-04-10T10:24:00.219Z,96116.13
2023-04-10T10:26:33.110Z,96127.97
2023-04-10T10:29:06.845Z,96118.75
2023-04-10T10:31:37.795Z,96122.50
2023-04-10T10:34:10.280Z,96119.97
2023-04-10T10:36:40.874Z,96115.34
2023-04-10T10:39:33.754Z,96117.88
2023-04-10T10:42:08.220Z,96108.78
2023-04-10T10:44:39.749Z,96124.50
2023-04-10T10:47:18.951Z,96118.00
2023-04-10T10:49:59.055Z,96115.22
2023-04-10T10:52:53.512Z,96121.41
2023-04-10T10:55:40.328Z,96122.31
2023-04-10T10:58:10.393Z,96113.38
2023-04-10T11:01:09.777Z,96111.34
2023-04-10T11:03:40.343Z,96116.13
2023-04-10T11:06:10.820Z,96113.53
2023-04-10T11:08:43.883Z,96116.97
2023-04-10T11:11:16.766Z,96118.59
2023-04-10T11:13:57.547Z,96106.75
2023-04-10T11:16:33.641Z,96109.91
2023-04-10T11:19:14.747Z,96106.75
2023-04-10T11:22:16.169Z,96112.81
2023-04-10T11:24:54.801Z,96110.44
2023-04-10T11:27:48.219Z,96114.19
2023-04-10T11:30:32.977Z,96111.28
2023-04-10T11:33:04.361Z,96119.47
2023-04-10T11:35:34.035Z,96113.66
2023-04-10T11:38:29.564Z,96118.69
2023-04-10T11:41:07.205Z,96114.75
2023-04-10T11:43:36.413Z,96103.69
2023-04-10T11:46:10.794Z,96108.47
2023-04-10T11:48:39.814Z,96102.66
2023-04-10T11:51:10.436Z,96105.84
2023-04-10T11:53:40.025Z,96091.13
2023-04-10T11:56:24.580Z,96093.78
2023-04-10T11:58:55.269Z,96099.06
2023-04-10T12:01:25.602Z,96098.84
2023-04-10T12:03:55.490Z,96104.38
2023-04-10T12:06:26.236Z,96104.94
2023-04-10T12:08:55.756Z,96098.09
2023-04-10T12:11:27.190Z,96106.53
2023-04-10T12:13:58.300Z,96102.06
2023-04-10T12:16:28.329Z,96096.03
2023-04-10T12:18:57.640Z,96097.88
2023-04-10T12:21:27.988Z,96101.03
2023-04-10T12:23:56.735Z,96100.25
2023-04-10T12:26:25.565Z,96097.34
2023-04-10T12:28:58.050Z,96094.75
2023-04-10T12:31:37.231Z,96090.00
2023-04-10T12:34:08.531Z,96089.75
2023-04-10T12:36:38.714Z,96094.00
2023-04-10T12:39:23.971Z,96096.09
2023-04-10T12:41:52.745Z,96096.34
2023-04-10T12:44:21.930Z,96092.94
2023-04-10T12:46:51.126Z,96097.16
2023-04-10T12:49:20.356Z,96088.47
2023-04-10T12:51:50.861Z,96087.41
2023-04-10T12:54:37.607Z,96093.22
2023-04-10T12:57:06.937Z,96085.31
2023-04-10T12:59:35.901Z,96082.69
2023-04-10T13:02:05.571Z,96085.03
2023-04-10T13:04:34.713Z,96080.31
2023-04-10T13:07:03.618Z,96079.25
2023-04-10T13:09:32.437Z,96080.81
2023-04-10T13:12:02.206Z,96074.78
2023-04-10T13:14:31.176Z,96072.41
2023-04-10T13:17:00.017Z,96079.22
2023-04-10T13:19:28.891Z,96070.56
2023-04-10T13:21:57.780Z,96073.97
2023-04-10T13:24:26.563Z,96072.94
2023-04-10T13:26:55.453Z,96075.56
2023-04-10T13:29:24.416Z,96077.66
2023-04-10T13:31:53.377Z,96073.22
2023-04-10T13:34:22.492Z,96063.75
2023-04-10T13:36:51.652Z,96068.75
2023-04-10T13:39:20.652Z,96071.66
2023-04-10T13:41:49.601Z,96064.28
2023-04-10T13:44:18.899Z,96066.38
2023-04-10T13:46:48.006Z,96065.34
2023-04-10T13:49:18.300Z,96061.91
2023-04-10T13:51:47.483Z,96058.47
2023-04-10T13:54:19.461Z,96050.34
2023-04-10T13:56:48.805Z,96055.88
2023-04-10T13:59:17.824Z,96047.72
2023-04-10T14:01:48.524Z,96048.78
2023-04-10T14:04:20.929Z,96039.59
2023-04-10T14:06:51.685Z,96041.94
2023-04-10T14:09:21.064Z,96032.50
2023-04-10T14:11:49.948Z,96031.94
2023-04-10T14:14:18.846Z,96029.06
2023-04-10T14:16:47.575Z,96024.88
2023-04-10T14:19:16.365Z,96027.25
2023-04-10T14:21:45.212Z,96021.72
2023-04-10T14:24:14.130Z,96017.00
2023-04-10T14:26:43.043Z,96021.97
2023-04-10T14:29:12.675Z,96019.63
2023-04-10T14:31:56.681Z,96012.25
2023-04-10T14:34:26.620Z,96013.59
2023-04-10T14:36:56.799Z,96007.78
2023-04-10T14:39:25.919Z,96005.16
2023-04-10T14:41:54.872Z,96000.97
2023-04-10T14:44:23.806Z,96010.66
2023-04-10T14:46:52.644Z,96005.16
2023-04-10T14:49:21.403Z,95997.28
2023-04-10T14:51:50.923Z,95997.53
2023-04-10T14:54:22.514Z,95986.78
2023-04-10T14:56:51.550Z,95998.59
2023-04-10T14:59:20.331Z,95993.63
2023-04-10T15:01:50.060Z,95984.94
2023-04-10T15:04:19.209Z,95992.28
2023-04-10T15:06:48.021Z,95979.44
2023-04-10T15:09:16.860Z,95978.38
2023-04-10T15:11:45.692Z,95982.81
2023-04-10T15:14:14.451Z,95974.44
2023-04-10T15:16:43.558Z,95982.84
2023-04-10T15:19:12.355Z,95973.09
2023-04-10T15:21:41.926Z,95972.31
2023-04-10T15:24:10.803Z,95975.22
2023-04-10T15:26:45.674Z,95967.31
2023-04-10T15:29:15.331Z,95964.69
2023-04-10T15:31:44.099Z,95964.44
2023-04-10T15:34:13.865Z,95964.16
2023-04-10T15:36:42.699Z,95958.66
2023-04-10T15:39:12.297Z,95955.50
2023-04-10T15:41:41.120Z,95953.41
2023-04-10T15:44:09.962Z,95953.16
2023-04-10T15:46:38.873Z,95949.72
2023-04-10T15:49:07.627Z,95935.81
2023-04-10T15:51:36.851Z,95939.50
2023-04-10T15:54:05.844Z,95938.19
2023-04-10T15:56:34.839Z,95941.59
2023-04-10T15:59:03.654Z,95944.47
2023-04-10T16:01:33.219Z,95936.59
2023-04-10T16:04:02.778Z,95937.91
2023-04-10T16:06:31.877Z,95938.44
2023-04-10T16:09:00.790Z,95924.00
2023-04-10T16:11:29.632Z,95932.41
2023-04-10T16:13:58.414Z,95932.66
2023-04-10T16:16:27.379Z,95921.91
2023-04-10T16:18:57.700Z,95922.19
2023-04-10T16:21:27.678Z,95922.19
2023-04-10T16:23:56.739Z,95915.06
2023-04-10T16:26:25.551Z,95918.75
2023-04-10T16:28:54.594Z,95922.69
2023-04-10T16:31:23.504Z,95917.69
2023-04-10T16:33:52.418Z,95907.19
2023-04-10T16:36:21.324Z,95909.00
2023-04-10T16:38:50.904Z,95905.81
2023-04-10T16:41:21.197Z,95903.75
2023-04-10T16:43:49.953Z,95901.09
2023-04-10T16:46:18.915Z,95903.69
2023-04-10T16:48:47.740Z,95899.25
2023-04-10T16:51:18.174Z,95889.78
2023-04-10T16:53:47.027Z,95890.31
2023-04-10T16:56:15.797Z,95894.53
2023-04-10T16:58:44.708Z,95884.56
2023-04-10T17:01:15.632Z,95889.81
2023-04-10T17:03:45.914Z,95883.00
2023-04-10T17:06:15.494Z,95877.75
2023-04-10T17:08:45.092Z,95874.88
2023-04-10T17:11:14.389Z,95868.59
2023-04-10T17:13:43.497Z,95864.38
2023-04-10T17:16:12.352Z,95859.91
2023-04-10T17:18:43.932Z,95855.97
2023-04-10T17:21:13.812Z,95856.22
2023-04-10T17:23:42.774Z,95845.22
2023-04-10T17:26:16.509Z,95848.84
2023-04-10T17:28:46.911Z,95856.22
2023-04-10T17:31:16.488Z,95840.72
2023-04-10T17:33:45.577Z,95844.41
2023-04-10T17:36:15.327Z,95839.69
2023-04-10T17:38:44.155Z,95838.88
2023-04-10T17:41:16.637Z,95836.50
2023-04-10T17:43:45.577Z,95818.91
2023-04-10T17:46:15.894Z,95831.50
2023-04-10T17:48:45.578Z,95823.94
2023-04-10T17:51:14.617Z,95821.84
2023-04-10T17:53:43.493Z,95821.31
2023-04-10T17:56:20.194Z,95806.91
2023-04-10T17:58:49.206Z,95809.78
2023-04-10T18:01:28.096Z,95803.75
2023-04-10T18:03:57.746Z,95799.28
2023-04-10T18:06:27.034Z,95798.50
2023-04-10T18:08:58.842Z,95804.25
2023-04-10T18:11:28.482Z,95796.09
2023-04-10T18:13:57.279Z,95773.53
2023-04-10T18:16:26.393Z,95789.25
2023-04-10T18:18:55.460Z,95781.84
2023-04-10T18:21:24.442Z,95770.31
2023-04-10T18:23:54.196Z,95780.03
2023-04-10T18:26:23.057Z,95775.28
2023-04-10T18:28:51.874Z,95776.66
2023-04-10T18:31:21.013Z,95764.28
2023-04-10T18:34:03.793Z,95766.91
2023-04-10T18:36:35.930Z,95758.75
2023-04-10T18:39:05.400Z,95770.28
2023-04-10T18:41:34.258Z,95754.25
2023-04-10T18:44:05.404Z,95757.16
2023-04-10T18:46:35.009Z,95748.75
2023-04-10T18:49:04.002Z,95741.13
2023-04-10T18:51:35.212Z,95733.72
2023-04-10T18:54:06.346Z,95743.72
2023-04-10T18:56:36.205Z,95730.81
2023-04-10T18:59:05.779Z,95737.94
2023-04-10T19:01:35.546Z,95719.31
2023-04-10T19:04:04.822Z,95711.69
2023-04-10T19:06:34.022Z,95705.16
2023-04-10T19:09:02.714Z,95716.69
2023-04-10T19:11:31.428Z,95703.00
2023-04-10T19:14:00.117Z,95703.56
2023-04-10T19:16:28.901Z,95695.09
2023-04-10T19:18:57.694Z,95694.00
2023-04-10T19:21:28.095Z,95687.69
2023-04-10T19:23:56.950Z,95697.38
2023-04-10T19:26:26.115Z,95696.59
2023-04-10T19:28:55.580Z,95685.03
2023-04-10T19:31:27.979Z,95677.91
2023-04-10T19:33:56.893Z,95679.72
2023-04-10T19:36:27.591Z,95672.34
2023-04-10T19:38:57.970Z,95669.16
2023-04-10T19:41:26.962Z,95663.88
2023-04-10T19:43:56.117Z,95663.88
2023-04-10T19:46:25.348Z,95659.38
2023-04-10T19:48:55.365Z,95650.44
2023-04-10T19:51:24.142Z,95658.06
2023-04-10T19:53:52.886Z,95643.63
2023-04-10T19:56:22.286Z,95648.09
2023-04-10T19:58:51.245Z,95639.97
2023-04-10T20:01:20.854Z,95637.38
2023-04-10T20:03:50.164Z,95626.69
2023-04-10T20:06:20.493Z,95628.00
2023-04-10T20:08:49.312Z,95621.44
2023-04-10T20:11:18.126Z,95618.84
2023-04-10T20:13:46.918Z,95617.78
2023-04-10T20:16:15.723Z,95608.84
2023-04-10T20:18:44.581Z,95608.63
2023-04-10T20:21:13.507Z,95601.81
2023-04-10T20:23:42.259Z,95599.44
2023-04-10T20:26:12.728Z,95598.66
2023-04-10T20:28:41.514Z,95580.81
2023-04-10T20:31:15.191Z,95575.84
2023-04-10T20:33:44.059Z,95580.44
2023-04-10T20:36:14.000Z,95579.69
2023-04-10T20:38:42.651Z,95576.78
2023-04-10T20:41:11.750Z,95555.28
2023-04-10T20:43:40.957Z,95572.03
2023-04-10T20:46:09.759Z,95561.75
2023-04-10T20:48:38.688Z,95565.91
2023-04-10T20:51:07.985Z,95562.44
2023-04-10T20:53:36.772Z,95550.59
2023-04-10T20:56:06.393Z,95546.63
2023-04-10T20:58:35.314Z,95539.50
2023-04-10T21:01:04.898Z,95525.53
2023-04-10T21:03:34.126Z,95534.19
2023-04-10T21:06:06.317Z,95519.28
2023-04-10T21:08:35.131Z,95532.44
2023-04-10T21:11:03.884Z,95521.63
2023-04-10T21:13:32.582Z,95517.47
2023-04-10T21:16:01.405Z,95521.94
2023-04-10T21:18:30.205Z,95520.22
2023-04-10T21:20:58.995Z,95516.25
2023-04-10T21:23:27.892Z,95516.31
2023-04-10T21:25:56.706Z,95514.31
2023-04-10T21:28:25.412Z,95506.41
2023-04-10T21:30:54.420Z,95505.84
2023-04-10T21:33:23.135Z,95496.47
2023-04-10T21:35:51.910Z,95496.34
2023-04-10T21:38:20.721Z,95494.84
2023-04-10T21:40:53.326Z,95492.72
2023-04-10T21:43:22.939Z,95484.84
2023-04-10T21:45:51.738Z,95479.03
2023-04-10T21:48:21.293Z,95478.72
2023-04-10T21:50:51.778Z,95487.88
2023-04-10T21:53:20.635Z,95475.53
2023-04-10T21:55:50.748Z,95471.00
2023-04-10T21:58:19.489Z,95465.41
2023-04-10T22:00:50.579Z,95465.81
2023-04-10T22:03:20.705Z,95468.16
2023-04-10T22:05:50.882Z,95461.38
2023-04-10T22:08:21.003Z,95461.16
2023-04-10T22:10:49.868Z,95459.31
2023-04-10T22:13:29.554Z,95456.88
2023-04-10T22:15:59.519Z,95447.38
2023-04-10T22:18:28.394Z,95450.53
2023-04-10T22:20:57.220Z,95449.16
2023-04-10T22:23:26.020Z,95453.16
2023-04-10T22:25:54.742Z,95456.84
2023-04-10T22:28:23.513Z,95443.97
2023-04-10T22:30:52.311Z,95448.78
2023-04-10T22:33:21.206Z,95444.50
2023-04-10T22:35:50.180Z,95439.19
2023-04-10T22:38:19.024Z,95433.44
2023-04-10T22:40:47.839Z,95443.13
2023-04-10T22:43:16.716Z,95428.63
2023-04-10T22:45:45.436Z,95427.00
2023-04-10T22:48:14.227Z,95431.19
2023-04-10T22:50:43.017Z,95431.63
2023-04-10T22:53:12.398Z,95430.06
2023-04-10T22:55:41.756Z,95425.31
2023-04-10T22:58:11.029Z,95417.09
2023-04-10T23:00:40.786Z,95419.47
2023-04-10T23:03:10.429Z,95417.13
2023-04-10T23:05:39.328Z,95421.06
2023-04-10T23:08:08.074Z,95412.31
2023-04-10T23:10:36.876Z,95398.09
2023-04-10T23:13:05.782Z,95393.06
2023-04-10T23:15:34.912Z,95406.63
2023-04-10T23:18:05.195Z,95402.31
2023-04-10T23:20:34.031Z,95411.19
2023-04-10T23:23:02.832Z,95404.84
2023-04-10T23:25:31.761Z,95397.94
2023-04-10T23:28:00.592Z,95399.81
2023-04-10T23:30:29.609Z,95397.69
2023-04-10T23:32:58.937Z,95401.09
2023-04-10T23:35:27.925Z,95390.03
2023-04-10T23:37:56.812Z,95397.50
2023-04-10T23:40:25.644Z,95399.72
2023-04-10T23:42:54.520Z,95404.47
2023-04-10T23:45:23.301Z,95391.25
2023-04-10T23:47:52.079Z,95388.84
2023-04-10T23:50:20.881Z,95387.69
2023-04-10T23:52:50.956Z,95387.91
2023-04-10T23:55:20.489Z,95384.63
2023-04-10T23:57:49.301Z,95372.16
